Time;durP1;ratioP1;P1;durP2;ratioP2;P2;SDS_P1;SDS_P2;PMS_P1;PMS_P2;Temp;Humidity;BMP_temperature;BMP_pressure;BME280_temperature;BME280_humidity;BME280_pressure;Samples;Min_cycle;Max_cycle;Signal;HPM_P1;HPM_P2
2022/01/14 00:00:58;;;;;;;2.30;2.10;;;11.30;99.90;;;;;;5088564;28;20996;-75
2022/01/14 00:03:29;;;;;;;2.33;2.13;;;11.30;99.90;;;;;;5078961;28;20450;-70
2022/01/14 00:06:01;;;;;;;2.20;2.00;;;11.30;99.90;;;;;;5081811;28;20944;-68
2022/01/14 00:08:32;;;;;;;2.43;2.23;;;11.30;99.90;;;;;;5082779;28;20469;-68
2022/01/14 00:11:03;;;;;;;2.40;1.87;;;11.30;99.90;;;;;;5088965;28;20549;-69
2022/01/14 00:13:49;;;;;;;2.47;2.27;;;11.30;99.90;;;;;;5083991;28;20477;-68
2022/01/14 00:16:23;;;;;;;2.60;2.40;;;11.30;99.90;;;;;;5072424;28;20493;-69
2022/01/14 00:18:54;;;;;;;2.40;2.17;;;11.30;99.90;;;;;;5086200;28;20481;-69
2022/01/14 00:21:25;;;;;;;3.83;3.53;;;11.40;99.90;;;;;;5091636;28;20455;-69
2022/01/14 00:24:07;;;;;;;2.63;2.00;;;11.40;99.90;;;;;;5089719;28;20505;-71
2022/01/14 00:32:48;;;;;;;2.77;2.53;;;11.40;99.90;;;;;;5047006;28;20664;-71
2022/01/14 00:35:21;;;;;;;3.20;2.93;;;11.30;99.90;;;;;;5084112;28;20462;-70
2022/01/14 00:37:52;;;;;;;3.47;3.27;;;11.40;99.90;;;;;;5088354;28;20458;-70
2022/01/14 00:40:23;;;;;;;4.20;3.80;;;11.40;99.90;;;;;;5090060;28;20835;-70
2022/01/14 00:43:03;;;;;;;3.43;3.23;;;11.40;99.90;;;;;;5087148;28;20463;-72
2022/01/14 00:45:43;;;;;;;3.60;3.30;;;11.40;99.90;;;;;;5086365;28;20462;-71
2022/01/14 00:48:16;;;;;;;4.50;3.53;;;11.50;99.90;;;;;;5097754;28;20537;-71
2022/01/14 00:50:47;;;;;;;3.40;3.10;;;11.40;99.90;;;;;;5092459;28;20555;-72
2022/01/14 00:53:18;;;;;;;4.33;3.17;;;11.50;99.90;;;;;;5090141;28;20519;-69
2022/01/14 00:55:55;;;;;;;2.60;2.40;;;11.50;99.90;;;;;;5083829;28;20462;-69
2022/01/14 01:01:14;;;;;;;2.87;2.67;;;11.40;99.90;;;;;;5090011;28;20459;-72
2022/01/14 01:03:47;;;;;;;3.77;3.47;;;11.40;99.90;;;;;;5080937;28;21007;-68
2022/01/14 01:06:18;;;;;;;4.67;4.30;;;11.40;99.90;;;;;;5080227;28;20493;-68
2022/01/14 01:08:51;;;;;;;5.90;5.33;;;11.40;99.90;;;;;;5087119;28;20982;-69
2022/01/14 01:11:25;;;;;;;6.57;5.20;;;11.30;99.90;;;;;;5088645;28;20470;-69
2022/01/14 01:14:03;;;;;;;4.77;4.47;;;11.20;99.90;;;;;;5083552;28;20565;-68
2022/01/14 01:16:34;;;;;;;5.90;5.40;;;11.20;99.90;;;;;;5089704;28;20465;-70
2022/01/14 01:19:07;;;;;;;6.07;5.47;;;11.10;99.90;;;;;;5087863;28;20465;-72
2022/01/14 01:21:38;;;;;;;6.80;6.17;;;11.10;99.90;;;;;;5093930;28;20453;-71
2022/01/14 01:24:12;;;;;;;6.53;6.03;;;10.90;99.90;;;;;;5088340;28;20457;-68
2022/01/14 01:26:44;;;;;;;6.87;6.30;;;11.00;99.90;;;;;;5089010;28;20454;-70
2022/01/14 01:29:44;;;;;;;6.90;6.30;;;11.00;99.90;;;;;;5091549;28;20561;-68
2022/01/14 01:32:17;;;;;;;6.90;6.30;;;11.00;99.90;;;;;;5098646;28;20695;-68
2022/01/14 01:34:52;;;;;;;7.30;6.40;;;10.90;99.90;;;;;;5092145;28;20482;-68
2022/01/14 01:37:48;;;;;;;7.17;6.57;;;10.90;99.90;;;;;;5085946;28;20582;-75
2022/01/14 01:40:39;;;;;;;7.80;7.10;;;10.90;99.90;;;;;;5095975;28;20459;-74
2022/01/14 01:43:28;;;;;;;6.40;5.90;;;10.80;99.90;;;;;;5082314;28;20460;-72
2022/01/14 01:46:23;;;;;;;5.80;5.40;;;10.80;99.90;;;;;;5077853;28;20550;-74
2022/01/14 01:49:08;;;;;;;6.80;6.30;;;10.80;99.90;;;;;;5090729;28;20453;-73
2022/01/14 01:52:14;;;;;;;6.60;6.00;;;10.80;99.90;;;;;;5085846;28;20569;-75
2022/01/14 01:54:52;;;;;;;6.17;5.60;;;10.80;99.90;;;;;;5088007;28;20527;-70
2022/01/14 01:57:26;;;;;;;6.67;6.07;;;10.80;99.90;;;;;;5094037;28;20544;-73
2022/01/14 01:59:58;;;;;;;7.83;7.23;;;10.80;99.90;;;;;;5088131;28;20464;-72
2022/01/14 02:02:30;;;;;;;7.60;6.90;;;10.80;99.90;;;;;;5093752;28;20451;-71
2022/01/14 02:05:02;;;;;;;6.63;6.03;;;10.80;99.90;;;;;;5086500;28;20553;-73
2022/01/14 02:07:36;;;;;;;7.53;6.90;;;10.70;99.90;;;;;;5094686;27;20459;-70
2022/01/14 02:10:08;;;;;;;7.77;7.17;;;10.70;99.90;;;;;;5096584;28;20825;-71
2022/01/14 02:12:47;;;;;;;6.83;6.23;;;10.70;99.90;;;;;;5083444;28;20505;-72
2022/01/14 02:15:46;;;;;;;8.07;7.37;;;10.70;99.90;;;;;;5089540;28;20598;-71
2022/01/14 02:18:32;;;;;;;31.97;11.97;;;10.80;99.90;;;;;;5084644;28;20466;-68
2022/01/14 02:24:08;;;;;;;9.63;8.67;;;10.80;99.90;;;;;;5082000;28;20473;-73
2022/01/14 02:26:54;;;;;;;8.73;7.93;;;10.80;99.90;;;;;;5085887;28;20454;-73
2022/01/14 02:41:10;;;;;;;8.57;7.83;;;10.70;99.90;;;;;;5045115;28;20862;-73
2022/01/14 02:44:19;;;;;;;9.03;8.23;;;10.70;99.90;;;;;;5018710;28;20566;-71
2022/01/14 02:50:58;;;;;;;11.43;9.90;;;10.70;99.90;;;;;;5021805;28;20588;-69
2022/01/14 02:53:55;;;;;;;14.10;10.90;;;10.70;99.90;;;;;;5047963;28;20510;-77
2022/01/14 02:56:32;;;;;;;10.00;9.07;;;10.70;99.90;;;;;;5046663;28;20522;-74
2022/01/14 02:59:44;;;;;;;10.57;9.57;;;10.70;99.90;;;;;;5031913;28;20987;-92
2022/01/14 03:02:29;;;;;;;11.13;9.90;;;10.60;99.90;;;;;;5044146;28;20469;-74
2022/01/14 03:05:01;;;;;;;12.50;11.43;;;10.60;99.90;;;;;;5045692;28;20469;-72
2022/01/14 03:07:32;;;;;;;13.03;11.40;;;10.60;99.90;;;;;;5048535;28;20505;-71
2022/01/14 03:10:03;;;;;;;13.87;12.23;;;10.70;99.90;;;;;;5047345;28;20452;-72
2022/01/14 03:12:39;;;;;;;11.57;10.37;;;10.60;99.90;;;;;;5047796;28;20538;-74
2022/01/14 03:15:41;;;;;;;12.43;10.50;;;10.60;99.90;;;;;;5057870;28;20531;-73
2022/01/14 03:18:21;;;;;;;14.20;11.63;;;10.70;99.90;;;;;;5054367;28;20539;-72
2022/01/14 03:21:00;;;;;;;11.30;10.13;;;10.70;99.90;;;;;;5055228;28;20913;-71
2022/01/14 03:23:31;;;;;;;30.53;14.50;;;10.70;99.90;;;;;;5045840;28;20448;-72
2022/01/14 03:26:02;;;;;;;10.40;9.40;;;10.70;99.90;;;;;;5048283;28;20460;-71
2022/01/14 03:28:35;;;;;;;112.43;27.03;;;10.70;99.90;;;;;;5046085;28;20473;-74
2022/01/14 03:31:36;;;;;;;12.47;11.17;;;10.70;99.90;;;;;;5054790;28;20493;-75
2022/01/14 03:56:08;;;;;;;12.20;11.03;;;10.40;99.90;;;;;;5024028;28;21004;-75
2022/01/14 04:18:47;;;;;;;12.13;10.83;;;10.50;99.90;;;;;;5089831;28;20452;-77
2022/01/14 04:29:27;;;;;;;10.93;9.80;;;10.50;99.90;;;;;;5097442;28;20515;-72
2022/01/14 04:36:52;;;;;;;13.10;10.30;;;10.40;99.90;;;;;;5096091;28;20580;-90
2022/01/14 04:57:21;;;;;;;12.02;10.73;;;10.30;99.90;;;;;;5047341;28;20595;-94
2022/01/14 05:04:58;;;;;;;10.63;9.63;;;10.20;99.90;;;;;;5033813;28;20424;-91
2022/01/14 05:15:56;;;;;;;10.90;9.80;;;10.40;99.90;;;;;;5098493;28;20463;-73
2022/01/14 05:55:17;;;;;;;10.30;9.27;;;10.70;99.90;;;;;;5063612;28;20481;-73
2022/01/14 06:02:15;;;;;;;15.03;11.90;;;10.70;99.90;;;;;;4965096;28;20577;-75
2022/01/14 06:05:05;;;;;;;11.77;10.67;;;10.80;99.90;;;;;;5059781;28;20490;-73
2022/01/14 06:08:03;;;;;;;12.40;11.20;;;10.70;99.90;;;;;;5049924;28;20558;-74
2022/01/14 06:10:37;;;;;;;15.63;10.73;;;10.60;99.90;;;;;;5074698;28;20497;-73
2022/01/14 06:13:10;;;;;;;12.53;10.83;;;10.70;99.90;;;;;;5030576;28;20987;-74
2022/01/14 06:15:47;;;;;;;10.47;9.47;;;10.70;99.90;;;;;;5024230;28;20469;-73
2022/01/14 06:18:18;;;;;;;11.67;10.50;;;10.70;99.90;;;;;;5031873;28;20489;-73
2022/01/14 06:20:49;;;;;;;9.73;8.93;;;10.70;99.90;;;;;;5024731;28;20468;-72
2022/01/14 06:23:21;;;;;;;9.87;8.97;;;10.70;99.90;;;;;;5026949;28;20460;-73
2022/01/14 06:26:18;;;;;;;10.10;9.10;;;10.80;99.90;;;;;;5032405;28;20445;-73
2022/01/14 06:29:00;;;;;;;8.53;7.63;;;10.80;99.90;;;;;;5021595;28;20504;-73
2022/01/14 06:31:31;;;;;;;7.83;6.80;;;10.80;99.90;;;;;;5027934;28;20507;-71
2022/01/14 06:34:02;;;;;;;7.53;6.93;;;10.70;99.90;;;;;;5026888;28;20487;-71
2022/01/14 06:36:40;;;;;;;7.10;6.50;;;10.70;99.90;;;;;;5029214;28;20540;-72
2022/01/14 06:39:11;;;;;;;6.73;6.13;;;10.70;99.90;;;;;;5031427;28;20464;-71
2022/01/14 06:41:47;;;;;;;7.13;6.53;;;10.70;99.90;;;;;;5033527;28;21008;-71
2022/01/14 06:44:19;;;;;;;6.67;6.07;;;10.70;99.90;;;;;;5026688;28;20553;-72
2022/01/14 06:46:50;;;;;;;6.60;6.00;;;10.70;99.90;;;;;;5042235;28;20559;-72
2022/01/14 06:49:21;;;;;;;6.90;6.20;;;10.80;99.90;;;;;;5035880;28;20576;-72
2022/01/14 06:52:24;;;;;;;6.50;5.90;;;10.80;99.90;;;;;;4972396;28;20524;-73
2022/01/14 06:55:24;;;;;;;5.93;5.43;;;10.80;99.90;;;;;;5013919;28;20561;-72
2022/01/14 06:57:57;;;;;;;5.47;4.90;;;10.80;99.90;;;;;;5026681;28;20533;-71
2022/01/14 07:00:28;;;;;;;5.57;5.07;;;10.80;99.90;;;;;;5024049;28;20453;-72
2022/01/14 07:02:59;;;;;;;4.03;3.73;;;10.80;99.90;;;;;;5032077;28;20580;-72
2022/01/14 07:05:30;;;;;;;4.83;4.33;;;10.80;99.90;;;;;;5030054;28;20508;-72
2022/01/14 07:08:01;;;;;;;4.07;3.77;;;10.80;99.90;;;;;;5026655;28;20568;-72
2022/01/14 07:10:36;;;;;;;4.13;3.73;;;10.80;99.90;;;;;;5030605;28;20531;-73
2022/01/14 07:13:08;;;;;;;4.10;3.70;;;10.80;99.90;;;;;;5063506;28;20570;-71
2022/01/14 07:18:25;;;;;;;4.03;3.63;;;10.70;99.90;;;;;;5072426;28;20511;-73
2022/01/14 07:20:56;;;;;;;3.50;3.20;;;10.70;99.90;;;;;;5061221;28;20489;-73
2022/01/14 07:23:27;;;;;;;3.50;3.20;;;10.70;99.90;;;;;;5068963;28;20923;-72
2022/01/14 07:26:02;;;;;;;3.60;3.30;;;10.70;99.90;;;;;;5061765;28;20466;-73
2022/01/14 07:32:11;;;;;;;4.67;2.80;;;10.70;99.90;;;;;;5067303;28;20471;-72
2022/01/14 07:34:42;;;;;;;3.40;3.10;;;10.70;99.90;;;;;;5071954;28;20466;-72
2022/01/14 07:37:14;;;;;;;3.40;2.90;;;10.70;99.90;;;;;;5062477;28;20596;-72
2022/01/14 07:39:45;;;;;;;4.00;2.63;;;10.70;99.90;;;;;;5072716;28;20512;-71
2022/01/14 07:42:16;;;;;;;4.53;3.40;;;10.70;99.90;;;;;;5070704;28;20458;-71
2022/01/14 07:44:47;;;;;;;4.20;3.40;;;10.60;99.90;;;;;;5069303;28;20484;-73
2022/01/14 07:47:20;;;;;;;3.53;3.00;;;10.70;99.90;;;;;;5065253;28;20455;-73
2022/01/14 07:49:53;;;;;;;3.27;3.07;;;10.70;99.90;;;;;;5067385;28;20513;-72
2022/01/14 07:52:24;;;;;;;3.60;3.20;;;10.80;99.90;;;;;;5065441;28;20462;-72
2022/01/14 07:54:54;;;;;;;2.70;2.50;;;10.80;99.90;;;;;;5076791;28;20465;-72
2022/01/14 07:57:26;;;;;;;8.10;6.60;;;10.80;99.90;;;;;;5065650;28;20546;-73
2022/01/14 07:59:57;;;;;;;8.23;7.43;;;10.80;99.90;;;;;;5059886;28;20543;-72
2022/01/14 08:02:29;;;;;;;9.60;7.53;;;10.80;99.90;;;;;;5070618;28;21059;-72
2022/01/14 08:05:01;;;;;;;9.77;8.40;;;10.60;99.90;;;;;;5056421;28;20470;-72
2022/01/14 08:07:34;;;;;;;8.90;8.00;;;10.60;99.90;;;;;;5064592;28;20482;-73
2022/01/14 08:10:06;;;;;;;9.33;7.97;;;10.60;99.90;;;;;;5073490;28;20567;-72
2022/01/14 08:12:37;;;;;;;9.90;7.87;;;10.60;99.90;;;;;;5073411;28;20577;-73
2022/01/14 08:15:09;;;;;;;7.97;7.17;;;10.60;99.90;;;;;;5065589;28;20463;-72
2022/01/14 08:17:42;;;;;;;8.57;7.67;;;10.50;99.90;;;;;;5062075;28;20620;-73
2022/01/14 08:20:14;;;;;;;10.10;7.97;;;10.50;99.90;;;;;;5056326;28;20531;-73
2022/01/14 08:22:45;;;;;;;7.27;6.50;;;10.60;99.90;;;;;;5068122;28;20515;-73
2022/01/14 08:25:17;;;;;;;8.73;7.23;;;10.50;99.90;;;;;;5065526;28;20467;-73
2022/01/14 08:27:48;;;;;;;9.93;8.60;;;10.50;99.90;;;;;;5063951;28;20546;-72
2022/01/14 08:33:37;;;;;;;12.43;11.13;;;10.50;99.90;;;;;;5071197;28;20463;-73
2022/01/14 08:36:10;;;;;;;8.50;7.70;;;10.30;99.90;;;;;;5054173;28;20467;-73
2022/01/14 08:38:54;;;;;;;6.07;5.47;;;10.20;99.90;;;;;;5063367;28;20450;-73
2022/01/14 08:44:47;;;;;;;3.93;3.63;;;10.10;99.90;;;;;;5045830;28;20570;-73
2022/01/14 08:47:25;;;;;;;5.40;3.43;;;10.10;99.90;;;;;;5074284;28;20565;-73
2022/01/14 08:50:12;;;;;;;3.93;3.63;;;10.00;99.90;;;;;;5030841;28;20490;-72
2022/01/14 08:53:26;;;;;;;3.50;3.20;;;10.10;99.90;;;;;;5063402;28;20561;-73
2022/01/14 08:56:09;;;;;;;3.25;2.95;;;10.00;99.90;;;;;;5065842;28;20473;-72
2022/01/14 08:59:21;;;;;;;2.70;2.50;;;9.90;99.90;;;;;;5073307;28;20228;-73
2022/01/14 09:02:07;;;;;;;3.13;2.85;;;9.90;99.90;;;;;;5073274;28;20811;-73
2022/01/14 09:04:53;;;;;;;2.90;2.70;;;9.80;99.90;;;;;;5054279;28;20302;-72
2022/01/14 09:15:21;;;;;;;2.03;1.92;;;9.70;99.90;;;;;;5060563;28;20216;-72
2022/01/14 09:32:33;;;;;;;1.77;1.67;;;9.60;99.90;;;;;;5071634;28;20521;-72
2022/01/14 09:35:07;;;;;;;1.60;1.50;;;9.60;99.90;;;;;;5065360;28;20552;-72
2022/01/14 09:37:39;;;;;;;2.23;1.83;;;9.50;99.90;;;;;;5070098;28;20952;-72
2022/01/14 09:40:58;;;;;;;1.90;1.67;;;9.50;99.90;;;;;;5081683;28;20539;-72
2022/01/14 09:43:31;;;;;;;2.25;1.65;;;9.60;99.90;;;;;;5065368;28;20214;-72
2022/01/14 09:46:06;;;;;;;1.88;1.75;;;9.50;99.90;;;;;;5064826;28;20221;-73
2022/01/14 09:49:00;;;;;;;2.22;1.85;;;9.50;99.90;;;;;;5067946;28;20209;-72
2022/01/14 09:51:49;;;;;;;1.83;1.60;;;9.50;99.90;;;;;;5074631;28;20662;-72
2022/01/14 09:57:27;;;;;;;2.10;1.93;;;9.60;99.90;;;;;;5072678;28;20236;-72
2022/01/14 10:00:00;;;;;;;2.20;1.75;;;9.50;99.90;;;;;;5069152;28;20459;-72
2022/01/14 10:02:33;;;;;;;2.75;2.22;;;9.50;99.90;;;;;;5070306;28;20593;-72
2022/01/14 10:05:31;;;;;;;2.17;2.00;;;9.60;99.90;;;;;;5067693;28;20221;-72
2022/01/14 10:08:17;;;;;;;2.10;2.00;;;9.60;99.90;;;;;;5062286;28;20607;-72
2022/01/14 10:10:54;;;;;;;2.80;2.60;;;9.60;99.90;;;;;;5073580;28;20315;-73
2022/01/14 10:13:31;;;;;;;2.70;2.50;;;9.60;99.90;;;;;;5059048;28;20252;-72
2022/01/14 10:16:06;;;;;;;2.90;2.50;;;9.50;99.90;;;;;;5073795;28;20484;-73
2022/01/14 10:18:40;;;;;;;3.33;3.03;;;9.50;99.90;;;;;;5069180;28;20479;-73
2022/01/14 10:21:13;;;;;;;3.22;2.95;;;9.50;99.90;;;;;;5073915;28;20311;-73
2022/01/14 10:27:06;;;;;;;2.65;2.45;;;9.50;99.90;;;;;;5025494;28;20522;-73
2022/01/14 10:29:40;;;;;;;3.10;2.80;;;9.40;99.90;;;;;;5067692;28;20210;-73
2022/01/14 10:32:19;;;;;;;4.47;3.80;;;9.40;99.90;;;;;;5073027;28;20230;-73
2022/01/14 10:38:15;;;;;;;3.60;3.30;;;9.20;99.90;;;;;;5069308;28;20550;-72
2022/01/14 10:41:00;;;;;;;3.70;3.40;;;9.30;99.90;;;;;;5070500;28;20235;-73
2022/01/14 10:43:36;;;;;;;3.08;2.88;;;9.30;99.90;;;;;;5065945;28;20220;-73
2022/01/14 10:46:08;;;;;;;3.95;3.55;;;9.20;99.90;;;;;;5072339;28;20277;-66
2022/01/14 10:48:41;;;;;;;3.33;2.65;;;9.30;99.90;;;;;;5064509;28;20671;-68
2022/01/14 10:51:14;;;;;;;3.42;3.13;;;9.30;99.90;;;;;;5065434;28;20222;-68
2022/01/14 10:53:51;;;;;;;3.15;2.95;;;9.30;99.90;;;;;;5061717;28;20227;-69
2022/01/14 10:56:25;;;;;;;3.90;2.63;;;9.40;99.90;;;;;;5078616;28;20212;-69
2022/01/14 10:58:59;;;;;;;3.92;3.22;;;9.20;99.90;;;;;;5075973;28;20566;-67
2022/01/14 11:01:31;;;;;;;2.90;2.70;;;9.20;99.90;;;;;;5069272;28;20598;-68
2022/01/14 11:04:14;;;;;;;2.83;2.63;;;9.30;99.90;;;;;;5082026;28;20469;-68
2022/01/14 11:06:45;;;;;;;3.17;2.97;;;9.30;99.90;;;;;;5058299;28;20469;-68
2022/01/14 11:09:22;;;;;;;3.17;2.90;;;9.20;99.90;;;;;;5065194;28;20212;-68
2022/01/14 11:11:53;;;;;;;2.77;2.57;;;9.30;99.90;;;;;;5065166;28;20531;-69
2022/01/14 11:14:24;;;;;;;3.50;2.60;;;9.30;99.90;;;;;;5065104;28;20463;-70
2022/01/14 11:16:55;;;;;;;3.03;2.83;;;9.30;99.90;;;;;;5072856;28;20462;-71
2022/01/14 11:19:28;;;;;;;2.92;2.72;;;9.30;99.90;;;;;;5066428;28;20463;-71
2022/01/14 11:24:49;;;;;;;3.03;2.83;;;9.30;99.90;;;;;;5063644;28;20295;-69
2022/01/14 11:27:25;;;;;;;5.47;3.05;;;9.30;99.90;;;;;;5063941;28;20304;-69
2022/01/14 11:30:00;;;;;;;3.57;2.63;;;9.30;99.90;;;;;;5082442;28;20234;-70
2022/01/14 11:32:55;;;;;;;2.67;2.47;;;9.40;99.90;;;;;;5051789;28;20495;-69
2022/01/14 11:35:27;;;;;;;2.70;2.50;;;9.30;99.90;;;;;;5063188;28;20220;-70
2022/01/14 11:37:58;;;;;;;3.00;2.80;;;9.40;99.90;;;;;;5071963;28;20275;-69
2022/01/14 11:40:50;;;;;;;4.23;2.93;;;9.40;99.90;;;;;;5067679;28;20224;-70
2022/01/14 11:43:45;;;;;;;3.75;3.25;;;9.30;99.90;;;;;;5072779;28;20553;-70
2022/01/14 11:46:39;;;;;;;3.53;3.22;;;9.30;99.90;;;;;;5072078;28;20232;-70
2022/01/14 11:49:38;;;;;;;3.20;2.90;;;9.20;99.90;;;;;;5073221;28;20216;-71
2022/01/14 11:52:10;;;;;;;3.40;3.15;;;9.20;99.90;;;;;;5068928;28;20265;-70
2022/01/14 11:54:45;;;;;;;3.72;2.80;;;9.10;99.90;;;;;;5068485;28;20333;-71
2022/01/14 11:57:45;;;;;;;3.50;3.20;;;9.30;99.90;;;;;;5080276;28;20665;-70
2022/01/14 12:00:37;;;;;;;2.93;2.63;;;9.30;99.90;;;;;;5065454;28;20279;-69
2022/01/14 12:03:29;;;;;;;3.20;2.90;;;9.20;99.90;;;;;;5070577;28;20463;-70
2022/01/14 12:06:05;;;;;;;3.53;2.70;;;9.20;99.90;;;;;;5061283;28;20487;-70
2022/01/14 12:08:36;;;;;;;3.40;3.13;;;9.20;99.90;;;;;;5068060;28;20481;-70
2022/01/14 12:11:27;;;;;;;2.67;2.45;;;9.20;99.90;;;;;;5064309;28;20272;-72
2022/01/14 12:14:04;;;;;;;2.60;2.40;;;9.10;99.90;;;;;;5075720;28;20209;-70
2022/01/14 12:16:48;;;;;;;3.25;2.95;;;9.10;99.90;;;;;;5054025;28;20222;-70
2022/01/14 12:19:23;;;;;;;2.75;2.55;;;9.20;99.90;;;;;;5071311;28;20689;-69
2022/01/14 12:22:04;;;;;;;5.30;3.08;;;9.20;99.90;;;;;;5071030;28;20262;-71
2022/01/14 12:24:43;;;;;;;3.08;2.88;;;9.30;99.90;;;;;;5076010;28;20213;-70
2022/01/14 12:27:36;;;;;;;3.72;2.95;;;9.30;99.90;;;;;;5062215;28;20623;-70
2022/01/14 12:30:15;;;;;;;2.28;2.15;;;9.30;99.90;;;;;;5071271;28;20209;-71
2022/01/14 12:32:49;;;;;;;3.33;2.88;;;9.20;99.90;;;;;;5052229;28;20324;-70
2022/01/14 12:35:26;;;;;;;3.25;2.95;;;9.10;99.90;;;;;;5061313;28;20219;-70
2022/01/14 12:37:58;;;;;;;4.00;3.70;;;9.10;99.90;;;;;;5073479;28;20318;-70
2022/01/14 12:40:32;;;;;;;5.00;4.50;;;9.10;99.90;;;;;;5073805;28;20266;-70
2022/01/14 12:43:04;;;;;;;4.70;4.30;;;9.10;99.90;;;;;;5083085;28;20816;-71
2022/01/14 12:45:41;;;;;;;5.80;5.30;;;9.00;99.90;;;;;;5068446;28;20211;-70
2022/01/14 12:48:39;;;;;;;7.18;6.38;;;9.00;99.90;;;;;;5064400;28;20331;-71
2022/01/14 12:51:13;;;;;;;8.13;6.35;;;9.00;99.90;;;;;;5072841;28;20322;-70
2022/01/14 12:53:55;;;;;;;6.82;6.22;;;8.80;99.90;;;;;;5069649;28;20222;-70
2022/01/14 12:56:28;;;;;;;6.70;5.38;;;8.60;99.90;;;;;;5075530;28;20208;-70
2022/01/14 12:59:05;;;;;;;6.35;5.72;;;8.60;99.90;;;;;;5077279;28;20696;-70
2022/01/14 13:01:40;;;;;;;7.07;6.38;;;8.50;99.90;;;;;;5065478;28;20222;-70
2022/01/14 13:04:12;;;;;;;7.57;6.00;;;8.40;99.90;;;;;;5059047;28;20209;-69
2022/01/14 13:06:45;;;;;;;7.85;6.35;;;8.30;99.90;;;;;;5069845;28;20299;-71
2022/01/14 13:09:19;;;;;;;5.28;4.88;;;8.30;99.90;;;;;;5067892;28;20697;-71
2022/01/14 13:11:53;;;;;;;5.47;4.95;;;8.20;99.90;;;;;;5084427;28;20244;-70
2022/01/14 13:14:29;;;;;;;7.13;5.60;;;8.20;99.90;;;;;;5075034;28;20211;-70
2022/01/14 13:17:07;;;;;;;4.47;4.05;;;8.00;99.90;;;;;;5071121;28;20209;-70
2022/01/14 13:19:39;;;;;;;5.18;4.68;;;7.90;99.90;;;;;;5064538;28;20646;-69
2022/01/14 13:22:13;;;;;;;4.50;4.10;;;8.00;99.90;;;;;;5069759;28;20221;-69
2022/01/14 13:24:45;;;;;;;4.45;4.05;;;7.90;99.90;;;;;;5083990;28;20678;-69
2022/01/14 13:27:22;;;;;;;5.38;4.88;;;7.80;99.90;;;;;;5069160;28;20232;-70
2022/01/14 13:29:54;;;;;;;4.90;4.47;;;7.70;99.90;;;;;;5064960;28;20241;-70
2022/01/14 13:32:30;;;;;;;6.43;5.38;;;7.70;99.90;;;;;;5066709;28;20814;-70
2022/01/14 13:35:09;;;;;;;4.82;4.35;;;7.60;99.90;;;;;;5071789;28;20314;-70
2022/01/14 13:37:41;;;;;;;5.57;4.03;;;7.50;99.90;;;;;;5080109;28;20308;-70
2022/01/14 13:40:15;;;;;;;5.07;4.43;;;7.50;99.90;;;;;;5050788;28;20249;-70
2022/01/14 13:42:48;;;;;;;6.68;5.45;;;7.40;99.90;;;;;;5077671;28;20723;-70
2022/01/14 13:45:22;;;;;;;6.10;4.43;;;7.30;99.90;;;;;;5061680;28;20624;-70
2022/01/14 13:48:09;;;;;;;5.57;4.97;;;7.20;99.90;;;;;;5075166;28;20299;-69
2022/01/14 13:50:42;;;;;;;6.88;5.50;;;7.20;99.90;;;;;;5077273;28;20212;-70
2022/01/14 13:53:14;;;;;;;5.30;4.80;;;7.20;99.90;;;;;;5079071;28;20307;-69
2022/01/14 13:55:47;;;;;;;4.88;4.47;;;7.20;99.90;;;;;;5055203;28;20224;-70
2022/01/14 13:58:22;;;;;;;4.75;4.35;;;7.10;99.90;;;;;;5058949;28;20309;-71
2022/01/14 14:00:55;;;;;;;5.60;4.95;;;7.10;99.90;;;;;;5064631;28;20585;-71
2022/01/14 14:03:37;;;;;;;5.50;5.00;;;7.00;99.90;;;;;;5077847;28;20220;-70
2022/01/14 14:06:13;;;;;;;4.00;3.60;;;6.90;99.90;;;;;;5059346;28;20210;-70
2022/01/14 14:08:51;;;;;;;4.78;4.38;;;6.90;99.90;;;;;;5057211;28;20295;-71
2022/01/14 14:17:13;;;;;;;4.35;3.95;;;6.70;99.90;;;;;;5069495;28;20334;-69
2022/01/14 14:19:51;;;;;;;5.07;4.20;;;6.60;99.90;;;;;;5070525;28;20678;-70
2022/01/14 14:22:24;;;;;;;7.30;4.22;;;6.60;99.90;;;;;;5057337;28;20267;-71
2022/01/14 14:25:03;;;;;;;4.65;3.70;;;6.60;99.90;;;;;;5066110;28;20215;-70
2022/01/14 14:27:36;;;;;;;5.05;4.15;;;6.50;99.90;;;;;;5077303;28;22500;-71
2022/01/14 14:30:11;;;;;;;4.95;4.30;;;6.50;99.90;;;;;;5066320;28;20681;-70
2022/01/14 14:32:44;;;;;;;4.55;4.15;;;6.40;99.90;;;;;;5070319;28;20225;-70
2022/01/14 14:35:18;;;;;;;5.00;4.45;;;6.30;99.90;;;;;;5074682;28;20222;-72
2022/01/14 14:37:53;;;;;;;4.97;4.25;;;6.30;99.90;;;;;;5060130;28;20301;-70
2022/01/14 14:40:28;;;;;;;4.35;3.95;;;6.30;99.90;;;;;;5070506;28;20283;-70
2022/01/14 14:43:00;;;;;;;4.43;4.00;;;6.30;99.90;;;;;;5070949;28;20231;-70
2022/01/14 14:45:32;;;;;;;3.35;3.05;;;6.20;99.90;;;;;;5073022;28;20714;-72
2022/01/14 14:48:04;;;;;;;3.38;2.65;;;6.20;99.90;;;;;;5078238;28;20225;-71
2022/01/14 14:50:37;;;;;;;3.83;3.53;;;6.20;99.90;;;;;;5073715;28;20286;-71
2022/01/14 14:53:08;;;;;;;3.67;3.25;;;6.20;99.90;;;;;;5070247;28;20249;-70
2022/01/14 14:55:40;;;;;;;3.83;3.53;;;6.10;99.90;;;;;;5068146;28;20221;-71
2022/01/14 15:01:25;;;;;;;2.00;1.80;;;6.00;99.90;;;;;;5687339;22;20592;-70
2022/01/14 15:03:57;;;;;;;2.88;2.67;;;5.90;99.90;;;;;;5076175;28;20212;-70
2022/01/14 15:06:29;;;;;;;3.95;2.95;;;5.90;99.90;;;;;;5087262;28;20231;-70
2022/01/14 15:09:00;;;;;;;2.72;2.53;;;5.90;99.90;;;;;;5087997;28;20216;-70
2022/01/14 15:11:31;;;;;;;2.85;2.65;;;5.90;99.90;;;;;;5076889;28;20302;-70
2022/01/14 15:14:03;;;;;;;2.70;2.50;;;5.90;99.90;;;;;;5076845;28;20303;-71
2022/01/14 15:19:22;;;;;;;2.50;2.30;;;5.90;99.90;;;;;;5074437;28;20228;-73
2022/01/14 15:21:55;;;;;;;2.30;2.10;;;5.80;99.90;;;;;;5085682;28;20208;-78
2022/01/14 15:24:30;;;;;;;2.95;2.70;;;5.90;99.90;;;;;;5077993;28;20689;-77
2022/01/14 15:27:01;;;;;;;5.13;2.45;;;5.90;99.90;;;;;;5087130;28;20218;-76
2022/01/14 15:29:35;;;;;;;3.47;2.17;;;5.90;99.90;;;;;;5082345;28;20213;-77
2022/01/14 15:32:07;;;;;;;2.80;2.60;;;5.80;99.90;;;;;;5084209;28;20262;-78
2022/01/14 15:34:38;;;;;;;2.85;2.55;;;5.90;99.90;;;;;;5074662;28;20627;-76
2022/01/14 15:37:10;;;;;;;2.25;2.05;;;5.90;99.90;;;;;;5082002;28;20219;-75
2022/01/14 15:39:41;;;;;;;2.63;2.42;;;5.80;99.90;;;;;;5088940;28;20216;-75
2022/01/14 15:42:12;;;;;;;2.55;2.35;;;5.90;99.90;;;;;;5074112;28;20197;-79
2022/01/14 15:44:43;;;;;;;4.20;3.50;;;5.90;99.90;;;;;;5082857;28;20208;-76
2022/01/14 15:47:14;;;;;;;2.85;2.60;;;5.90;99.90;;;;;;5080871;28;20291;-72
2022/01/14 15:49:45;;;;;;;3.08;2.78;;;5.90;99.90;;;;;;5073657;28;20223;-82
2022/01/14 15:52:17;;;;;;;2.60;2.40;;;5.90;99.90;;;;;;5084848;28;20717;-75
2022/01/14 15:54:48;;;;;;;3.10;2.90;;;5.90;99.90;;;;;;5075471;28;20228;-75
2022/01/14 15:57:19;;;;;;;3.67;2.70;;;5.90;99.90;;;;;;5085551;28;20321;-76
2022/01/14 15:59:50;;;;;;;2.60;2.40;;;5.80;99.90;;;;;;5073229;28;20299;-75
2022/01/14 16:02:21;;;;;;;2.88;2.60;;;5.80;99.90;;;;;;5069729;28;20351;-79
2022/01/14 16:04:52;;;;;;;16.65;6.53;;;5.80;99.90;;;;;;5081234;28;20215;-69
2022/01/14 16:07:25;;;;;;;524.30;83.88;;;5.80;99.90;;;;;;5072679;28;20209;-69
2022/01/14 16:09:59;;;;;;;377.77;67.22;;;5.80;99.90;;;;;;5085179;28;20215;-71
2022/01/14 16:12:35;;;;;;;1260.88;226.25;;;5.90;99.90;;;;;;5083345;28;20207;-69
2022/01/14 16:15:07;;;;;;;1941.88;363.08;;;6.10;99.90;;;;;;5078765;28;20328;-69
2022/01/14 16:17:39;;;;;;;1023.78;177.18;;;6.10;99.90;;;;;;5081277;28;20269;-69
2022/01/14 16:20:12;;;;;;;39.72;10.00;;;6.30;99.90;;;;;;5067273;28;20213;-71
2022/01/14 16:22:46;;;;;;;472.98;79.00;;;6.40;99.90;;;;;;5079780;28;20250;-70
2022/01/14 16:25:18;;;;;;;1999.90;428.17;;;6.40;99.90;;;;;;5074614;28;20292;-74
2022/01/14 16:27:49;;;;;;;1999.90;726.10;;;6.40;99.90;;;;;;5073763;28;20220;-71
2022/01/14 16:30:20;;;;;;;371.13;74.72;;;6.50;99.90;;;;;;5079482;28;20220;-72
2022/01/14 16:32:51;;;;;;;8.40;6.95;;;6.40;99.90;;;;;;5074213;28;20212;-70
2022/01/14 16:35:22;;;;;;;1106.75;200.18;;;6.50;99.90;;;;;;5077715;28;20234;-72
2022/01/14 16:37:55;;;;;;;25.08;8.13;;;6.60;99.90;;;;;;5077542;28;20212;-70
2022/01/14 16:40:26;;;;;;;4.63;3.83;;;6.60;99.90;;;;;;5078068;28;20217;-72
2022/01/14 16:42:57;;;;;;;1999.90;714.35;;;6.60;99.90;;;;;;5079421;28;20605;-70
2022/01/14 16:45:28;;;;;;;9.80;5.07;;;6.80;99.90;;;;;;5084014;28;20212;-73
2022/01/14 16:47:59;;;;;;;320.05;62.25;;;6.80;99.90;;;;;;5072969;28;20215;-75
2022/01/14 16:50:30;;;;;;;10.25;6.10;;;7.00;99.90;;;;;;5078520;28;20205;-72
2022/01/14 16:53:02;;;;;;;5.93;4.60;;;6.80;99.90;;;;;;5084367;28;20665;-73
2022/01/14 16:55:33;;;;;;;4.32;3.97;;;7.10;99.90;;;;;;5069381;28;20232;-72
2022/01/14 16:58:08;;;;;;;5.13;3.70;;;7.10;99.90;;;;;;5074930;28;20220;-72
2022/01/14 17:00:40;;;;;;;1220.80;220.70;;;7.20;99.90;;;;;;5074847;28;20312;-74
2022/01/14 17:03:11;;;;;;;1983.50;390.92;;;7.30;99.90;;;;;;5073676;28;20677;-75
2022/01/14 17:05:42;;;;;;;3.40;3.10;;;7.60;99.90;;;;;;5077498;28;20213;-73
2022/01/14 17:08:14;;;;;;;3.53;3.33;;;7.80;99.90;;;;;;5079522;28;20227;-73
2022/01/14 17:10:45;;;;;;;2.13;2.00;;;8.10;99.90;;;;;;5074416;28;20220;-73